Time;durP1;ratioP1;P1;durP2;ratioP2;P2;SDS_P1;SDS_P2;PMS_P1;PMS_P2;Temp;Humidity;BMP_temperature;BMP_pressure;BME280_temperature;BME280_humidity;BME280_pressure;Samples;Min_cycle;Max_cycle;Signal;HPM_P1;HPM_P2
2023/03/27 00:00:45;;;;;;;;;1.33;1.33;;;;;11.23;78.58;101247.00;5078990;27;46226;-76
2023/03/27 00:03:13;;;;;;;;;1.33;1.33;;;;;11.24;77.57;101248.69;5079112;27;45413;-76
2023/03/27 00:05:39;;;;;;;;;2.00;2.00;;;;;11.22;77.70;101248.03;5078109;27;45478;-76
2023/03/27 00:08:08;;;;;;;;;1.33;1.33;;;;;11.18;77.17;101262.66;5077971;28;47346;-76
2023/03/27 00:10:34;;;;;;;;;2.00;2.00;;;;;11.11;76.76;101262.47;5077816;28;47495;-76
2023/03/27 00:12:59;;;;;;;;;2.00;2.00;;;;;11.07;76.15;101274.44;5079182;27;45291;-76
2023/03/27 00:15:24;;;;;;;;;3.00;1.00;;;;;10.97;75.96;101276.44;5078746;27;45293;-76
2023/03/27 00:17:51;;;;;;;;;1.00;1.00;;;;;10.94;75.79;101285.56;5066033;27;45268;-76
2023/03/27 00:20:21;;;;;;;;;1.00;1.00;;;;;10.88;76.31;101291.53;5078228;28;45577;-76
2023/03/27 00:22:55;;;;;;;;;2.00;2.00;;;;;10.76;76.47;101292.81;5077794;28;45378;-76
2023/03/27 00:25:27;;;;;;;;;1.00;0.00;;;;;10.83;76.46;101310.63;5079200;27;45451;-76
2023/03/27 00:27:55;;;;;;;;;2.00;2.00;;;;;10.80;76.36;101313.63;5079289;27;45432;-76
2023/03/27 00:30:21;;;;;;;;;1.33;1.00;;;;;10.76;76.90;101320.25;5070403;27;45384;-76
2023/03/27 00:32:46;;;;;;;;;1.00;1.00;;;;;10.80;76.92;101331.38;5058763;28;45441;-75
2023/03/27 00:35:13;;;;;;;;;1.00;1.00;;;;;10.69;76.33;101322.72;5067502;28;45282;-76
2023/03/27 00:37:39;;;;;;;;;1.00;1.00;;;;;10.69;76.66;101330.69;5078778;27;45203;-76
2023/03/27 00:40:16;;;;;;;;;2.67;2.33;;;;;10.65;75.79;101339.97;5078742;27;45279;-75
2023/03/27 00:42:45;;;;;;;;;2.33;1.00;;;;;10.52;76.51;101323.66;5078847;27;45334;-76
2023/03/27 00:45:17;;;;;;;;;1.00;1.00;;;;;10.60;77.02;101339.66;5078770;27;45364;-76
2023/03/27 00:47:45;;;;;;;;;0.33;0.33;;;;;10.55;77.20;101352.56;5077099;28;46240;-76
2023/03/27 00:50:18;;;;;;;;;3.00;1.00;;;;;10.43;76.85;101347.50;5078280;27;46454;-76
2023/03/27 00:52:46;;;;;;;;;1.00;1.00;;;;;10.42;77.59;101352.97;5069268;28;45331;-75
2023/03/27 00:55:15;;;;;;;;;0.00;0.00;;;;;10.39;77.90;101362.09;5080906;28;45443;-76
2023/03/27 00:57:43;;;;;;;;;2.00;2.00;;;;;10.38;78.69;101376.38;5082248;27;45248;-76
2023/03/27 01:00:15;;;;;;;;;2.33;1.67;;;;;10.38;78.55;101379.03;5081456;27;47172;-76
2023/03/27 01:02:43;;;;;;;;;3.00;2.00;;;;;10.30;79.47;101376.34;5082257;27;45312;-76
2023/03/27 01:05:10;;;;;;;;;2.00;2.00;;;;;10.32;79.16;101379.66;5081598;27;45367;-75
2023/03/27 01:07:36;;;;;;;;;0.00;0.00;;;;;10.26;79.52;101385.63;5080818;28;46366;-75
2023/03/27 01:10:04;;;;;;;;;1.33;1.33;;;;;10.18;79.88;101386.38;5080310;28;47113;-75
2023/03/27 01:12:43;;;;;;;;;3.67;3.00;;;;;10.08;80.38;101382.00;5080770;28;45293;-76
2023/03/27 01:15:33;;;;;;;;;1.33;1.33;;;;;10.02;81.19;101393.22;5081853;27;45408;-76
2023/03/27 01:18:40;;;;;;;;;0.67;0.67;;;;;10.00;81.48;101399.69;5081400;27;45274;-76
2023/03/27 01:21:37;;;;;;;;;2.00;2.00;;;;;9.94;82.45;101412.59;5071906;28;47409;-76
2023/03/27 01:24:37;;;;;;;;;3.00;1.67;;;;;9.97;83.07;101420.25;5081995;27;45557;-76
2023/03/27 01:27:18;;;;;;;;;3.67;2.67;;;;;9.91;82.88;101409.41;5081522;27;45318;-76
2023/03/27 01:30:04;;;;;;;;;1.33;1.33;;;;;9.89;83.17;101420.19;5077601;27;45350;-76
2023/03/27 01:32:58;;;;;;;;;2.00;1.00;;;;;9.83;83.39;101426.09;5075728;28;45777;-76
2023/03/27 01:36:03;;;;;;;;;1.00;1.00;;;;;9.82;83.80;101440.38;5081811;28;45337;-75
2023/03/27 01:38:42;;;;;;;;;2.67;2.00;;;;;9.78;84.13;101433.69;5081491;27;45375;-76
2023/03/27 01:41:26;;;;;;;;;2.00;1.00;;;;;9.80;84.77;101439.69;5081108;28;45567;-76
2023/03/27 01:43:56;;;;;;;;;3.00;2.67;;;;;9.76;84.69;101428.53;5079949;28;47224;-76
2023/03/27 01:47:17;;;;;;;;;2.00;2.00;;;;;9.77;84.43;101450.59;5081003;28;45304;-76
2023/03/27 01:49:50;;;;;;;;;2.67;2.00;;;;;9.70;84.59;101439.78;5047033;27;45458;-75
2023/03/27 01:52:25;;;;;;;;;1.33;1.33;;;;;9.65;84.87;101453.50;5080981;27;45468;-76
2023/03/27 01:54:57;;;;;;;;;3.67;1.00;;;;;9.66;84.86;101446.34;5081267;27;45455;-76
2023/03/27 01:57:33;;;;;;;;;2.00;2.00;;;;;9.65;84.54;101452.66;5081005;27;45452;-75
2023/03/27 02:00:14;;;;;;;;;2.00;1.33;;;;;9.67;84.98;101472.75;5081477;27;45396;-76
2023/03/27 02:02:43;;;;;;;;;1.33;1.33;;;;;9.60;85.31;101453.94;5079700;27;45268;-76
2023/03/27 02:05:22;;;;;;;;;3.00;1.00;;;;;9.63;85.14;101483.81;5079440;28;47206;-76
2023/03/27 02:07:52;;;;;;;;;1.33;1.00;;;;;9.57;85.49;101472.81;5081075;28;45656;-76
2023/03/27 02:10:24;;;;;;;;;2.33;2.33;;;;;9.61;86.39;101473.38;5079466;28;45313;-75
2023/03/27 02:12:57;;;;;;;;;3.00;1.33;;;;;9.65;86.31;101476.53;5081073;27;45478;-76
2023/03/27 02:15:29;;;;;;;;;2.00;1.00;;;;;9.59;85.98;101475.31;5080865;28;46565;-75
2023/03/27 02:18:06;;;;;;;;;1.33;0.33;;;;;9.64;86.50;101485.50;5079171;28;45858;-76
2023/03/27 02:20:34;;;;;;;;;1.67;1.67;;;;;9.68;86.60;101485.03;5080943;27;45409;-75
2023/03/27 02:23:00;;;;;;;;;2.33;1.33;;;;;9.68;86.54;101487.69;5079355;28;47494;-76
2023/03/27 02:25:27;;;;;;;;;3.00;2.00;;;;;9.70;87.08;101495.50;5080857;27;45338;-75
2023/03/27 02:28:23;;;;;;;;;1.67;1.67;;;;;9.69;86.85;101494.66;5079232;28;45603;-76
2023/03/27 02:31:31;;;;;;;;;3.00;3.00;;;;;9.62;87.71;101495.41;5049151;27;45301;-76
2023/03/27 02:34:39;;;;;;;;;1.00;1.00;;;;;9.62;88.66;101501.56;5075044;28;45401;-75
2023/03/27 02:37:27;;;;;;;;;2.00;2.00;;;;;9.62;88.77;101506.88;5080385;28;45499;-76
2023/03/27 02:39:53;;;;;;;;;1.67;1.67;;;;;9.67;88.74;101514.41;5081067;27;45397;-76
2023/03/27 02:42:41;;;;;;;;;2.33;2.00;;;;;9.65;89.19;101509.22;5080471;28;45478;-75
2023/03/27 02:45:23;;;;;;;;;1.00;1.00;;;;;9.55;89.72;101498.66;5079318;28;47310;-76
2023/03/27 02:47:55;;;;;;;;;4.67;3.00;;;;;9.58;89.62;101497.53;5080312;28;45279;-76
2023/03/27 02:50:27;;;;;;;;;3.00;2.00;;;;;9.80;89.82;101516.69;5080035;27;45302;-76
2023/03/27 02:53:01;;;;;;;;;2.67;2.67;;;;;9.78;89.77;101523.94;5079336;28;45385;-76
2023/03/27 02:55:37;;;;;;;;;2.33;1.67;;;;;9.71;90.30;101511.28;5080145;27;45480;-76
2023/03/27 02:58:09;;;;;;;;;2.00;1.67;;;;;9.79;90.31;101531.75;5078905;28;47431;-75
2023/03/27 03:00:40;;;;;;;;;2.00;2.00;;;;;9.70;90.23;101528.19;5066705;27;45327;-75
2023/03/27 03:03:26;;;;;;;;;1.00;1.00;;;;;9.74;90.70;101544.66;5080185;27;45414;-76
2023/03/27 03:05:52;;;;;;;;;2.00;2.00;;;;;9.76;91.44;101544.50;5078874;28;46574;-75
2023/03/27 03:08:20;;;;;;;;;2.00;2.00;;;;;9.83;90.90;101540.28;5078787;28;47916;-76
2023/03/27 03:10:46;;;;;;;;;3.00;1.00;;;;;9.85;91.17;101546.28;5078897;28;45342;-75
2023/03/27 03:13:13;;;;;;;;;3.00;3.00;;;;;9.85;90.23;101546.28;5078675;27;45490;-76
2023/03/27 03:15:38;;;;;;;;;2.33;2.33;;;;;9.76;90.55;101547.16;5078290;28;45933;-76
2023/03/27 03:18:04;;;;;;;;;4.33;2.33;;;;;9.76;90.99;101545.34;5079303;27;45228;-75
2023/03/27 03:20:29;;;;;;;;;1.00;1.00;;;;;9.66;91.11;101531.28;5079906;27;45256;-76
2023/03/27 03:22:56;;;;;;;;;3.00;3.00;;;;;9.52;91.24;101541.41;5078833;27;45311;-76
2023/03/27 03:25:22;;;;;;;;;2.33;1.00;;;;;9.63;91.22;101548.34;5079935;28;45353;-75
2023/03/27 03:27:48;;;;;;;;;2.00;1.33;;;;;9.68;91.53;101554.06;5078311;28;47909;-76
2023/03/27 03:30:13;;;;;;;;;2.00;2.00;;;;;9.66;91.03;101558.66;5079618;27;45446;-76
2023/03/27 03:32:39;;;;;;;;;3.33;2.00;;;;;9.61;91.38;101571.56;5075720;28;45485;-76
2023/03/27 03:35:05;;;;;;;;;2.00;2.00;;;;;9.54;91.39;101575.75;5068803;28;47784;-75
2023/03/27 03:37:37;;;;;;;;;2.00;2.00;;;;;9.51;91.97;101586.66;5078510;27;46102;-76
2023/03/27 03:40:10;;;;;;;;;1.33;0.00;;;;;9.50;91.74;101588.50;5079510;27;45268;-76
2023/03/27 03:42:36;;;;;;;;;2.00;2.00;;;;;9.43;92.14;101574.97;5079676;27;45288;-76
2023/03/27 03:45:01;;;;;;;;;2.00;2.00;;;;;9.44;92.40;101575.81;5079485;27;45299;-75
2023/03/27 03:47:26;;;;;;;;;2.00;2.00;;;;;9.53;92.60;101576.75;5079355;28;46165;-75
2023/03/27 03:49:52;;;;;;;;;2.00;1.00;;;;;9.32;92.76;101586.63;5079589;27;45429;-77
2023/03/27 03:52:17;;;;;;;;;2.67;1.67;;;;;9.40;92.91;101596.50;5079095;28;52119;-76
2023/03/27 03:54:43;;;;;;;;;2.33;1.00;;;;;9.33;93.17;101595.41;5079305;28;53451;-76
2023/03/27 03:57:08;;;;;;;;;2.00;2.00;;;;;9.34;93.14;101608.53;5077645;28;47121;-76
2023/03/27 03:59:34;;;;;;;;;2.67;1.00;;;;;9.32;93.17;101599.03;5078831;28;55797;-76
2023/03/27 04:01:59;;;;;;;;;3.00;2.00;;;;;9.35;93.11;101609.38;5079159;27;45418;-76
2023/03/27 04:04:24;;;;;;;;;1.00;0.00;;;;;9.34;93.57;101610.34;5079448;27;45346;-76
2023/03/27 04:06:50;;;;;;;;;1.33;1.33;;;;;9.25;93.89;101609.38;5079120;28;46009;-76
2023/03/27 04:09:15;;;;;;;;;1.67;1.67;;;;;9.26;93.30;101632.28;5077868;28;45312;-76
2023/03/27 04:11:40;;;;;;;;;2.00;1.67;;;;;9.12;93.54;101619.47;5078839;28;46686;-76
2023/03/27 04:14:06;;;;;;;;;2.00;2.00;;;;;9.20;93.86;101643.47;5074741;28;46033;-76
2023/03/27 04:16:31;;;;;;;;;2.00;2.00;;;;;9.22;93.87;101647.66;5073053;28;47235;-76
2023/03/27 04:18:57;;;;;;;;;2.00;2.00;;;;;9.17;94.01;101655.22;5077825;28;45344;-76
2023/03/27 04:21:25;;;;;;;;;4.00;2.00;;;;;9.08;94.91;101646.28;5079120;27;45891;-76
2023/03/27 04:23:50;;;;;;;;;5.67;3.00;;;;;9.04;94.87;101662.63;5079352;27;45349;-76
2023/03/27 04:26:16;;;;;;;;;1.00;1.00;;;;;8.86;96.27;101662.50;5078739;28;47569;-75
2023/03/27 04:28:41;;;;;;;;;1.67;1.67;;;;;8.97;95.74;101667.66;5077993;28;47679;-75
2023/03/27 04:31:09;;;;;;;;;3.00;2.00;;;;;9.00;96.25;101674.47;5078552;28;45232;-76
2023/03/27 04:33:38;;;;;;;;;3.00;2.00;;;;;8.98;95.93;101671.16;5081279;28;46155;-76
2023/03/27 04:36:05;;;;;;;;;2.00;1.33;;;;;8.96;95.91;101674.78;5082036;27;45292;-77
2023/03/27 04:38:31;;;;;;;;;4.33;3.33;;;;;9.00;96.11;101669.16;5081216;28;45379;-76
2023/03/27 04:40:57;;;;;;;;;2.33;2.33;;;;;9.05;96.34;101683.72;5080707;27;45349;-77
2023/03/27 04:43:24;;;;;;;;;1.67;1.33;;;;;9.04;96.58;101684.66;5082607;27;45162;-76
2023/03/27 04:45:52;;;;;;;;;4.33;3.00;;;;;9.10;96.98;101685.94;5082036;27;45393;-75
2023/03/27 04:48:18;;;;;;;;;1.00;1.00;;;;;9.17;96.03;101695.00;5081873;27;45402;-76
2023/03/27 04:50:48;;;;;;;;;5.00;2.00;;;;;9.02;96.39;101677.84;5081599;27;45376;-76
2023/03/27 04:53:13;;;;;;;;;3.00;2.00;;;;;9.24;95.88;101703.22;5080440;27;45482;-76
2023/03/27 04:55:39;;;;;;;;;2.33;2.33;;;;;9.22;96.03;101698.06;5081791;27;46388;-76
2023/03/27 04:58:04;;;;;;;;;2.33;2.00;;;;;9.25;96.14;101717.31;5082221;28;45432;-75
2023/03/27 05:00:30;;;;;;;;;2.00;2.00;;;;;9.00;96.97;101706.28;5082258;28;45372;-76
2023/03/27 05:02:56;;;;;;;;;1.00;1.00;;;;;9.25;96.41;101707.53;5081748;27;45385;-77
2023/03/27 05:05:21;;;;;;;;;2.67;2.67;;;;;9.09;97.48;101722.22;5081848;28;46211;-77
2023/03/27 05:07:48;;;;;;;;;2.00;2.00;;;;;9.13;97.39;101714.81;5081919;27;45251;-76
2023/03/27 05:10:16;;;;;;;;;2.67;2.00;;;;;9.15;97.34;101725.28;5081279;28;45520;-75
2023/03/27 05:12:46;;;;;;;;;2.67;1.67;;;;;9.16;97.29;101724.31;5081701;27;45310;-75
2023/03/27 05:15:12;;;;;;;;;3.33;2.00;;;;;9.13;98.05;101724.59;5081235;27;45294;-76
2023/03/27 05:17:44;;;;;;;;;3.00;2.67;;;;;9.33;96.36;101730.72;5081475;27;45475;-75
2023/03/27 05:20:13;;;;;;;;;3.00;3.00;;;;;9.40;96.60;101733.66;5066916;28;45466;-76
2023/03/27 05:22:40;;;;;;;;;2.00;2.00;;;;;9.27;96.64;101736.56;5080590;28;47056;-76
2023/03/27 05:25:06;;;;;;;;;3.00;3.00;;;;;9.40;97.16;101737.13;5077103;28;47012;-76
2023/03/27 05:27:31;;;;;;;;;2.00;2.00;;;;;9.43;97.01;101738.66;5079555;27;45412;-76
2023/03/27 05:29:57;;;;;;;;;2.67;2.67;;;;;9.40;97.18;101729.16;5081066;28;45358;-76
2023/03/27 05:32:22;;;;;;;;;2.00;2.00;;;;;9.52;96.96;101740.44;5079619;27;45505;-76
2023/03/27 05:34:49;;;;;;;;;3.00;3.00;;;;;9.48;96.50;101744.38;5080248;28;48225;-76
2023/03/27 05:37:16;;;;;;;;;2.33;2.33;;;;;9.49;97.13;101756.69;5079643;28;45363;-76
2023/03/27 05:39:42;;;;;;;;;2.00;2.00;;;;;9.39;96.34;101758.47;5081727;27;45445;-76
2023/03/27 05:42:07;;;;;;;;;1.00;1.00;;;;;9.53;96.46;101762.53;5068156;27;45374;-76
2023/03/27 05:44:32;;;;;;;;;3.00;2.00;;;;;9.53;97.04;101766.03;5080150;28;48371;-76
2023/03/27 05:46:58;;;;;;;;;3.67;3.00;;;;;9.39;97.56;101763.78;5080850;28;56879;-77
2023/03/27 05:49:23;;;;;;;;;3.00;2.67;;;;;9.62;96.90;101768.78;5080039;28;45769;-77
2023/03/27 05:51:49;;;;;;;;;2.00;2.00;;;;;9.64;96.39;101767.66;5081152;27;45453;-78
2023/03/27 05:54:15;;;;;;;;;1.67;1.67;;;;;9.63;96.39;101770.47;5080899;28;45308;-77
2023/03/27 05:56:40;;;;;;;;;2.00;2.00;;;;;9.62;96.04;101777.59;5080083;27;45616;-76
2023/03/27 05:59:06;;;;;;;;;2.33;2.33;;;;;9.71;96.54;101778.56;5080300;27;45401;-76
2023/03/27 06:01:33;;;;;;;;;2.67;2.00;;;;;9.86;95.59;101778.94;5075843;28;45468;-76
2023/03/27 06:03:59;;;;;;;;;3.00;2.00;;;;;9.83;95.30;101771.28;5081362;27;45656;-76
2023/03/27 06:06:25;;;;;;;;;1.00;1.00;;;;;9.83;94.88;101765.97;5080459;27;46314;-76
2023/03/27 06:08:50;;;;;;;;;3.00;2.33;;;;;9.88;94.85;101784.13;5079384;28;45312;-76
2023/03/27 06:11:16;;;;;;;;;2.67;1.00;;;;;9.79;95.25;101772.53;5076203;27;45438;-77
2023/03/27 06:13:41;;;;;;;;;2.00;2.00;;;;;9.84;95.38;101781.75;5079052;28;45410;-77
2023/03/27 06:16:07;;;;;;;;;3.00;1.33;;;;;10.04;95.01;101794.97;5080893;27;45551;-77
2023/03/27 06:18:33;;;;;;;;;3.00;3.00;;;;;10.03;94.31;101805.75;5079599;28;45349;-76
2023/03/27 06:20:59;;;;;;;;;1.67;1.67;;;;;10.01;94.42;101794.41;5079380;28;46162;-76
2023/03/27 06:23:25;;;;;;;;;2.33;2.33;;;;;10.06;94.55;101808.13;5079569;28;48436;-77
2023/03/27 06:25:51;;;;;;;;;3.00;3.00;;;;;10.16;93.36;101813.38;5080628;28;45362;-76
2023/03/27 06:28:18;;;;;;;;;4.00;3.00;;;;;10.16;93.70;101808.91;5080879;27;45350;-76
2023/03/27 06:30:47;;;;;;;;;5.00;4.00;;;;;10.07;93.39;101799.16;5080572;28;45469;-77
2023/03/27 06:33:14;;;;;;;;;4.00;3.00;;;;;10.10;93.16;101807.69;5079657;27;45467;-77
2023/03/27 06:35:40;;;;;;;;;2.67;2.67;;;;;10.39;92.97;101826.31;5080707;27;45288;-76
2023/03/27 06:38:06;;;;;;;;;2.67;2.67;;;;;10.25;92.77;101822.31;5080633;27;45289;-76
2023/03/27 06:40:34;;;;;;;;;3.00;2.00;;;;;10.27;92.39;101820.34;5080740;27;45282;-76
2023/03/27 06:43:05;;;;;;;;;1.33;1.33;;;;;10.32;91.81;101823.38;5080524;27;45385;-76
2023/03/27 06:45:33;;;;;;;;;4.00;2.00;;;;;10.35;91.62;101829.25;5093912;27;45402;-76
2023/03/27 06:48:04;;;;;;;;;4.00;2.00;;;;;10.33;91.92;101830.41;5080139;28;45426;-76
2023/03/27 06:50:30;;;;;;;;;4.00;3.00;;;;;10.33;92.63;101820.59;5078774;27;45348;-77
2023/03/27 06:52:56;;;;;;;;;3.00;3.00;;;;;10.43;92.10;101838.31;5080448;27;46200;-76
2023/03/27 06:55:24;;;;;;;;;4.67;3.67;;;;;10.43;92.23;101839.16;5078701;28;45667;-76
2023/03/27 06:57:52;;;;;;;;;3.00;3.00;;;;;10.53;92.06;101843.66;5077178;27;45365;-76
2023/03/27 07:00:21;;;;;;;;;2.67;1.67;;;;;10.58;91.40;101857.31;5080228;27;45385;-76
2023/03/27 07:02:48;;;;;;;;;1.00;0.00;;;;;10.55;91.10;101846.97;5080069;27;46014;-76
2023/03/27 07:05:15;;;;;;;;;2.00;2.00;;;;;10.45;91.13;101850.50;5079740;27;45339;-76
2023/03/27 07:07:42;;;;;;;;;4.00;3.00;;;;;10.46;91.63;101851.34;5080533;27;45337;-76
2023/03/27 07:10:09;;;;;;;;;2.00;2.00;;;;;10.47;91.90;101868.97;5078862;28;45658;-76
2023/03/27 07:12:34;;;;;;;;;2.00;2.00;;;;;10.49;90.97;101856.38;5080423;27;46166;-76
2023/03/27 07:15:00;;;;;;;;;4.33;2.00;;;;;10.54;91.49;101870.06;5078544;28;45361;-76
2023/03/27 07:17:25;;;;;;;;;1.67;1.33;;;;;10.53;91.31;101865.72;5079321;27;45211;-77
2023/03/27 07:19:50;;;;;;;;;2.00;1.00;;;;;10.63;91.36;101878.16;5076844;27;45355;-77
2023/03/27 07:22:16;;;;;;;;;2.33;1.33;;;;;10.63;90.53;101865.69;5072085;28;45274;-77
2023/03/27 07:24:41;;;;;;;;;2.00;1.67;;;;;10.64;90.32;101871.84;5071253;27;45196;-76
2023/03/27 07:27:06;;;;;;;;;2.00;2.00;;;;;10.72;91.03;101885.25;5080394;28;45305;-76
2023/03/27 07:29:32;;;;;;;;;3.00;2.00;;;;;10.73;90.73;101884.25;5079758;28;51477;-77
2023/03/27 07:31:58;;;;;;;;;3.00;3.00;;;;;10.63;92.06;101886.13;5076150;27;46276;-76
2023/03/27 07:34:24;;;;;;;;;2.00;2.00;;;;;10.62;90.30;101903.06;5079469;27;45410;-76
2023/03/27 07:36:49;;;;;;;;;4.00;3.00;;;;;10.62;91.10;101897.75;5078459;27;45317;-77
2023/03/27 07:39:15;;;;;;;;;3.00;3.00;;;;;10.64;90.55;101903.75;5065667;28;46902;-76
2023/03/27 07:41:40;;;;;;;;;1.67;1.67;;;;;10.66;90.51;101909.75;5078255;28;47868;-76
2023/03/27 07:44:05;;;;;;;;;3.00;2.67;;;;;10.63;90.86;101888.78;5079532;28;45401;-76
2023/03/27 07:46:31;;;;;;;;;5.00;3.00;;;;;10.56;90.73;101891.16;5078547;28;45596;-76
2023/03/27 07:48:56;;;;;;;;;2.33;2.33;;;;;10.70;90.57;101901.34;5077671;27;45915;-76
2023/03/27 07:51:22;;;;;;;;;2.33;2.33;;;;;10.73;90.76;101900.22;5078164;27;46115;-75
2023/03/27 07:53:53;;;;;;;;;3.00;2.67;;;;;10.75;92.25;101903.56;5079849;28;45368;-76
2023/03/27 07:56:20;;;;;;;;;3.67;3.67;;;;;10.79;90.69;101902.28;5079753;27;45287;-76
2023/03/27 07:58:46;;;;;;;;;2.00;2.00;;;;;10.90;90.38;101908.41;5079808;27;45295;-77
2023/03/27 08:01:12;;;;;;;;;3.33;3.00;;;;;10.80;89.37;101905.75;5079088;28;45375;-76
2023/03/27 08:03:37;;;;;;;;;2.67;2.67;;;;;10.92;88.83;101907.25;5079587;28;45453;-77
2023/03/27 08:06:03;;;;;;;;;3.67;3.67;;;;;10.93;88.25;101914.25;5078159;28;45403;-77
2023/03/27 08:08:29;;;;;;;;;3.33;3.00;;;;;11.05;88.27;101904.25;5084707;27;46325;-76
2023/03/27 08:10:55;;;;;;;;;3.00;2.00;;;;;11.13;86.52;101915.97;5075440;27;46112;-76
2023/03/27 08:13:21;;;;;;;;;3.33;3.00;;;;;11.18;86.97;101914.53;5064756;28;45280;-76
2023/03/27 08:15:46;;;;;;;;;2.00;2.00;;;;;11.05;86.41;101900.75;5078319;28;45237;-76
2023/03/27 08:18:12;;;;;;;;;1.00;1.00;;;;;11.21;85.39;101932.03;5078950;28;45347;-77
2023/03/27 08:20:37;;;;;;;;;4.67;3.00;;;;;11.26;84.60;101937.75;5079480;27;45286;-76
2023/03/27 08:23:03;;;;;;;;;2.33;2.33;;;;;11.13;85.24;101938.09;5078846;27;45358;-76
2023/03/27 08:25:31;;;;;;;;;2.00;1.00;;;;;11.35;83.59;101938.69;5079567;27;45292;-76
2023/03/27 08:27:58;;;;;;;;;2.33;2.33;;;;;11.34;82.76;101936.97;5083498;27;46336;-77
2023/03/27 08:30:23;;;;;;;;;1.33;1.33;;;;;11.40;82.01;101949.69;5080247;27;47133;-76
2023/03/27 08:32:49;;;;;;;;;1.00;1.00;;;;;11.43;80.98;101954.72;5077404;28;45255;-76
2023/03/27 08:35:15;;;;;;;;;2.33;2.33;;;;;11.43;81.17;101945.91;5079206;27;45307;-76
2023/03/27 08:37:40;;;;;;;;;3.67;2.00;;;;;11.54;78.82;101956.34;5077568;28;46802;-76
2023/03/27 08:40:16;;;;;;;;;2.00;2.00;;;;;11.64;78.22;101961.59;5078592;27;59053;-76
2023/03/27 08:42:44;;;;;;;;;1.00;1.00;;;;;11.71;78.36;101957.31;5079085;27;45327;-76
2023/03/27 08:45:39;;;;;;;;;2.00;2.00;;;;;11.77;77.14;101958.56;5079093;27;45320;-77
2023/03/27 08:48:14;;;;;;;;;1.00;1.00;;;;;11.90;77.73;101966.16;5078920;27;45401;-76
2023/03/27 08:50:48;;;;;;;;;3.00;2.67;;;;;11.98;74.72;101952.91;5077287;27;47001;-76
2023/03/27 08:53:31;;;;;;;;;1.00;1.00;;;;;11.86;75.58;101967.47;5077523;28;46034;-77
2023/03/27 08:55:57;;;;;;;;;2.67;1.00;;;;;12.17;73.88;101976.91;5079132;28;45477;-76
2023/03/27 08:58:22;;;;;;;;;1.00;1.00;;;;;12.07;71.52;101969.84;5078568;28;45520;-76
2023/03/27 09:00:59;;;;;;;;;1.00;1.00;;;;;12.23;65.97;101982.47;5078874;27;46069;-77
2023/03/27 09:03:28;;;;;;;;;2.00;2.00;;;;;12.20;64.37;101974.78;5077574;28;45459;-76
2023/03/27 09:06:00;;;;;;;;;3.33;3.33;;;;;12.24;64.82;101988.59;5078876;27;45402;-76
2023/03/27 09:09:30;;;;;;;;;4.00;3.00;;;;;12.32;64.71;102002.00;5078537;27;45364;-76
2023/03/27 09:12:07;;;;;;;;;3.00;2.00;;;;;12.18;64.58;101990.06;4999660;28;46319;-77
2023/03/27 09:14:41;;;;;;;;;2.00;2.00;;;;;12.13;63.71;101997.69;5039551;28;45297;-77
2023/03/27 09:17:35;;;;;;;;;1.00;1.00;;;;;12.18;65.06;102000.72;5072715;27;45331;-76
2023/03/27 09:20:19;;;;;;;;;2.00;2.00;;;;;12.09;64.50;102007.81;5081696;28;45209;-76
2023/03/27 09:22:51;;;;;;;;;2.00;2.00;;;;;12.17;62.50;102012.38;5080673;27;47112;-77
2023/03/27 09:25:35;;;;;;;;;1.00;1.00;;;;;12.00;61.42;102006.88;5080505;28;45884;-77
2023/03/27 09:28:02;;;;;;;;;2.67;2.00;;;;;11.95;62.41;102017.19;5081732;27;45340;-77
2023/03/27 09:30:32;;;;;;;;;1.00;1.00;;;;;12.01;61.06;102023.72;5069251;27;45907;-76
2023/03/27 09:33:04;;;;;;;;;1.33;1.33;;;;;12.12;63.06;102020.00;5076507;28;47567;-76
2023/03/27 09:35:31;;;;;;;;;3.33;2.00;;;;;12.02;61.90;102027.19;5073816;28;45293;-76
2023/03/27 09:38:11;;;;;;;;;1.33;1.00;;;;;12.09;63.34;102028.31;5082021;27;45310;-76
2023/03/27 09:40:52;;;;;;;;;1.00;1.00;;;;;12.29;60.99;102036.13;5081648;28;45414;-76
2023/03/27 09:43:25;;;;;;;;;1.00;1.00;;;;;12.31;62.65;102029.69;5081638;27;45242;-76
2023/03/27 09:45:52;;;;;;;;;1.00;1.00;;;;;12.49;63.95;102026.97;5081099;28;45372;-76
2023/03/27 09:48:32;;;;;;;;;0.00;0.00;;;;;12.56;57.13;102037.84;5081728;27;45287;-76
2023/03/27 09:50:57;;;;;;;;;2.00;1.00;;;;;12.54;61.92;102023.81;5074229;28;45361;-76
2023/03/27 09:53:24;;;;;;;;;1.00;1.00;;;;;12.65;60.19;102044.06;5074758;28;51496;-76
2023/03/27 09:56:04;;;;;;;;;2.00;1.33;;;;;12.77;60.25;102049.16;5080152;28;45916;-76
2023/03/27 09:58:34;;;;;;;;;1.33;1.00;;;;;12.81;58.84;102048.69;5081139;27;45240;-77
2023/03/27 10:01:06;;;;;;;;;4.00;3.00;;;;;12.61;60.02;102048.06;5079896;27;47271;-77
2023/03/27 10:03:53;;;;;;;;;24.00;22.00;;;;;12.96;60.67;102038.25;5081244;27;45592;-78
2023/03/27 10:06:26;;;;;;;;;1.00;0.00;;;;;13.25;56.67;102060.25;5081664;27;46123;-77
2023/03/27 10:08:54;;;;;;;;;1.67;1.00;;;;;13.32;57.93;102041.78;5082023;27;45313;-78
2023/03/27 10:11:29;;;;;;;;;0.00;0.00;;;;;13.40;57.31;102039.13;5080253;27;47384;-78
2023/03/27 10:13:57;;;;;;;;;1.33;1.33;;;;;13.22;58.14;102034.72;5081790;28;45261;-77
2023/03/27 10:16:23;;;;;;;;;1.00;1.00;;;;;13.55;57.89;102046.53;5066107;28;46146;-77
2023/03/27 10:18:54;;;;;;;;;3.00;0.00;;;;;13.70;56.24;102054.78;5081652;27;45419;-77
2023/03/27 10:21:38;;;;;;;;;1.00;1.00;;;;;13.71;54.49;102043.09;5080667;27;45411;-76
2023/03/27 10:24:17;;;;;;;;;2.00;1.00;;;;;13.83;55.31;102049.78;5067755;27;46173;-77
2023/03/27 10:26:43;;;;;;;;;1.00;1.00;;;;;13.35;55.56;102049.47;5067581;28;45339;-77
2023/03/27 10:29:44;;;;;;;;;2.00;1.33;;;;;13.39;56.26;102056.16;5080969;28;45778;-76
2023/03/27 10:32:09;;;;;;;;;1.00;1.00;;;;;13.79;56.85;102052.97;5038289;28;45362;-76
2023/03/27 10:34:53;;;;;;;;;1.67;1.67;;;;;14.18;55.78;102060.38;5083625;27;47087;-75
2023/03/27 10:37:28;;;;;;;;;2.00;1.00;;;;;14.19;49.21;102061.22;5080611;27;45346;-73
2023/03/27 10:39:56;;;;;;;;;1.00;1.00;;;;;14.17;51.60;102036.47;5080456;27;45326;-73
2023/03/27 10:42:25;;;;;;;;;1.00;1.00;;;;;14.30;52.98;102034.16;5080574;27;45408;-76
2023/03/27 10:44:53;;;;;;;;;1.67;1.00;;;;;14.93;53.59;102041.59;5080473;27;45390;-76
2023/03/27 10:47:23;;;;;;;;;3.00;3.00;;;;;14.64;52.60;102051.84;5080072;27;45290;-76
2023/03/27 10:50:02;;;;;;;;;0.67;0.67;;;;;14.75;51.79;102041.78;5080865;27;45371;-76
2023/03/27 10:52:45;;;;;;;;;0.00;0.00;;;;;14.69;52.01;102053.19;5074711;27;45387;-76
2023/03/27 10:55:29;;;;;;;;;1.00;1.00;;;;;14.50;50.96;102058.72;5075162;28;45450;-76
2023/03/27 10:57:59;;;;;;;;;2.33;1.00;;;;;14.29;50.82;102061.91;5080430;27;45376;-76
2023/03/27 11:00:39;;;;;;;;;3.00;1.00;;;;;14.12;50.58;102061.03;5079241;28;45296;-76
2023/03/27 11:03:33;;;;;;;;;3.00;2.00;;;;;14.17;51.16;102068.56;5080207;27;45386;-75
2023/03/27 11:06:03;;;;;;;;;0.33;0.33;;;;;14.11;51.22;102067.41;5079425;27;45451;-76
2023/03/27 11:09:04;;;;;;;;;1.00;1.00;;;;;14.36;49.20;102078.09;5080342;27;45846;-76
2023/03/27 11:11:35;;;;;;;;;1.00;1.00;;;;;14.29;49.53;102077.09;5078956;27;45371;-76
2023/03/27 11:14:05;;;;;;;;;1.67;1.00;;;;;14.39;49.32;102080.44;5080189;27;45201;-75
2023/03/27 11:16:37;;;;;;;;;0.00;0.00;;;;;14.54;48.47;102083.28;5079949;27;45299;-77
2023/03/27 11:19:27;;;;;;;;;2.00;2.00;;;;;14.68;48.50;102076.44;5080245;28;45299;-76
2023/03/27 11:21:58;;;;;;;;;1.00;1.00;;;;;14.92;49.21;102076.56;5080368;27;45311;-76
2023/03/27 11:24:39;;;;;;;;;0.67;0.67;;;;;15.00;48.86;102082.75;5080082;27;45449;-76
2023/03/27 11:27:14;;;;;;;;;2.00;2.00;;;;;15.12;48.65;102071.69;5068722;27;46123;-76
2023/03/27 11:29:49;;;;;;;;;1.33;0.33;;;;;15.50;48.14;102077.22;5078850;28;45293;-75
2023/03/27 11:32:25;;;;;;;;;1.33;1.00;;;;;15.88;49.04;102086.41;5079403;27;45247;-75
2023/03/27 11:35:05;;;;;;;;;0.00;0.00;;;;;15.97;47.43;102092.59;5079753;27;45364;-76
2023/03/27 11:37:44;;;;;;;;;1.00;1.00;;;;;15.89;46.07;102091.59;5079633;27;46688;-74
2023/03/27 11:40:18;;;;;;;;;0.33;0.33;;;;;15.73;46.54;102079.13;5079799;27;45271;-74
2023/03/27 11:42:45;;;;;;;;;2.33;1.67;;;;;15.64;46.24;102077.50;5078736;27;45479;-76
2023/03/27 11:45:13;;;;;;;;;0.33;0.33;;;;;15.52;44.74;102093.97;5079608;27;45536;-76
2023/03/27 11:47:47;;;;;;;;;0.33;0.33;;;;;15.39;44.58;102082.97;5079584;27;45386;-75